Airfield :
LOGIN :

Register | Disclaimer

   EN    FR    IT 

 










Legend :    VFR   Marginal VFR   IFR   Intensive IFR   Very Intensive IFR
Visi :
Ceiling :
>= 8 km
>= 3000ft
5 to 8 km
1000 to 3000 ft
1500m to 5 km
500 to 1000 ft
800 to 1500m
200 to 500 ft
< 800m
< 200 ft
Symbols :   Thunderstorms  Fog  Heavy snow  Heavy precipitations  Wind > 20 kt
SIGMETs :     Misc.  Thunderstorms  Icing  Turbulence  Mountain Waves  Volcanic Ashes







- Airport Elevation : 74 ft
- IATA code : EIN


EHEH - Eindhoven

CURRENT METAR :
  • 172103Z AUTO 27008KT 220V330 9999 -RA FEW009 FEW015CB SCT060 BKN079 01/00 Q1012 BLU 30010KT 9999 FEW025 SCT045 TEMPO 2500 -SHRASN FEW010 SCT015CB

EXPIRED METARs :
  • 172056Z AUTO 26007KT 240V330 9999 -RADZ SCT012 FEW015CB BKN039 BKN057 01/00 Q1012 GRN 30010KT 9999 FEW025 SCT045 TEMPO 2500 -SHRASN FEW010 SCT015CB
  • 172055Z AUTO 26008KT 220V290 9999 +DZ FEW012/// FEW015CB BKN039/// BKN046 01/00 Q1012 BLU 30010KT 9999 FEW025 SCT045 TEMPO 2500 -SHRASN FEW010 SCT015CB
  • 172030Z AUTO 26006KT 9999 FEW012 SCT033 BKN039 01/00 Q1012 BLU 30010KT 9999 FEW025 SCT045 TEMPO 2500 -SHRASN FEW010 SCT015CB
  • 172025Z AUTO 26006KT 230V290 9999 -RADZ FEW012 SCT018 BKN034 01/00 Q1012 WHT 30010KT 9999 FEW025 SCT045 TEMPO 2500 -SHRASN FEW010 SCT015CB
  • 171955Z AUTO 30007KT 240V350 9999 FEW015CB BKN038 BKN045 01/00 Q1011 BLU 30010KT 9999 FEW025 SCT045 TEMPO 2500 -SHRASN FEW010 SCT015CB
  • 171937Z AUTO 30003KT 240V340 9999 BKN023 OVC027 01/00 Q1011 WHT 30010KT 9999 FEW025 SCT045 TEMPO 2500 -SHRASN FEW010 SCT015CB
  • 171936Z AUTO 29004KT 230V320 9999 BKN025 BKN029 BKN049 01/00 Q1011 BLU 30010KT 9999 FEW025 SCT045 TEMPO 2500 -SHRASN FEW010 SCT015CB
  • 171925Z AUTO 26006KT 230V290 9999 FEW052 01/00 Q1010 BLU 30010KT 9999 FEW025 SCT045 TEMPO 2500 -SHRASN FEW010 SCT015CB
  • 171855Z AUTO 28007KT 230V320 9999 FEW015CB 01/01 Q1010 BLU 30010KT 9999 FEW025 SCT045 TEMPO 2500 -SHRASN FEW010 SCT015CB
  • 171848Z AUTO 27006KT 240V320 9999 -RA FEW007 FEW015CB SCT017 BKN056 01/01 Q1010 WHT 30010KT 9999 FEW025 SCT045 TEMPO 2500 -SHRASN FEW010 SCT015CB
  • 171825Z AUTO 28007KT 240V330 9999 NCD 01/00 Q1009 BLU 30010KT 9999 FEW025 SCT045 TEMPO 4000 -SHRASN FEW010 SCT015CB

TAF TAF EHEH
Valid from the 17 at 18:00 until the 19 at 00:00 UTC


171735Z 1718/1824 31008KT 9999 SCT017 SCT040
TEMPO 1718/1721 33013G23KT 4500 SHRAGS SCT006 SCT015CB BKN020
PROB30
TEMPO 1718/1721 2500 SHRAGS SHRASN SCT005 SCT014CBBKN020
BECMG 1801/1804 24005KT 4500 BR
PROB30 1804/1809 2000
BECMG 1809/1812 17005KT 9999 NSW
No reported NOTAMs for that airfield.



MET'MAP, your aeronautical weather chart ! - Copyright ORBIFLY December 2007 - Disclaimer

ORBIFLY MET'MAP TEAM :

Programming & Development : Alexandra Zaïnal
Concept & Development : Baudouin d'Aumeries
Co-Development & Prog : Marc-Olivier Méhu
Technical & hardware support : Manuel Goepfert

Contact : metmap@orbifly.com




SOURCES & CREDITS :

   NOAA